sensor_id;sensor_type;location;lat;lon;timestamp;P1;durP1;ratioP1;P2;durP2;ratioP2
42586;SDS011;28216;53.362;-6.288;2023-03-23T00:01:07;10.60;;;2.25;;
42586;SDS011;28216;53.362;-6.288;2023-03-23T00:03:38;9.27;;;2.22;;
42586;SDS011;28216;53.362;-6.288;2023-03-23T00:06:03;12.23;;;2.30;;
42586;SDS011;28216;53.362;-6.288;2023-03-23T00:08:32;9.07;;;1.80;;
42586;SDS011;28216;53.362;-6.288;2023-03-23T00:11:03;12.45;;;2.08;;
42586;SDS011;28216;53.362;-6.288;2023-03-23T00:13:29;11.27;;;2.20;;
42586;SDS011;28216;53.362;-6.288;2023-03-23T00:15:55;8.00;;;2.10;;
42586;SDS011;28216;53.362;-6.288;2023-03-23T00:18:25;8.60;;;2.13;;
42586;SDS011;28216;53.362;-6.288;2023-03-23T00:20:55;10.90;;;1.90;;
42586;SDS011;28216;53.362;-6.288;2023-03-23T00:23:25;9.40;;;2.05;;
42586;SDS011;28216;53.362;-6.288;2023-03-23T00:25:52;9.98;;;2.03;;
42586;SDS011;28216;53.362;-6.288;2023-03-23T00:28:22;13.77;;;2.40;;
42586;SDS011;28216;53.362;-6.288;2023-03-23T00:31:03;7.50;;;1.95;;
42586;SDS011;28216;53.362;-6.288;2023-03-23T00:33:32;12.55;;;2.40;;
42586;SDS011;28216;53.362;-6.288;2023-03-23T00:36:03;12.55;;;2.47;;
42586;SDS011;28216;53.362;-6.288;2023-03-23T00:38:30;11.55;;;2.10;;
42586;SDS011;28216;53.362;-6.288;2023-03-23T00:40:56;11.95;;;2.40;;
42586;SDS011;28216;53.362;-6.288;2023-03-23T00:43:22;14.50;;;2.75;;
42586;SDS011;28216;53.362;-6.288;2023-03-23T00:45:54;11.10;;;2.35;;
42586;SDS011;28216;53.362;-6.288;2023-03-23T00:48:20;12.68;;;2.30;;
42586;SDS011;28216;53.362;-6.288;2023-03-23T00:50:47;10.43;;;2.63;;
42586;SDS011;28216;53.362;-6.288;2023-03-23T00:53:13;12.15;;;2.25;;
42586;SDS011;28216;53.362;-6.288;2023-03-23T00:55:42;10.15;;;2.20;;
42586;SDS011;28216;53.362;-6.288;2023-03-23T00:58:08;12.20;;;2.58;;
42586;SDS011;28216;53.362;-6.288;2023-03-23T01:00:35;16.60;;;2.70;;
42586;SDS011;28216;53.362;-6.288;2023-03-23T01:03:01;15.85;;;2.92;;
42586;SDS011;28216;53.362;-6.288;2023-03-23T01:05:26;12.55;;;2.63;;
42586;SDS011;28216;53.362;-6.288;2023-03-23T01:08:00;12.95;;;2.45;;
42586;SDS011;28216;53.362;-6.288;2023-03-23T01:10:26;16.13;;;3.10;;
42586;SDS011;28216;53.362;-6.288;2023-03-23T01:12:53;15.45;;;2.75;;
42586;SDS011;28216;53.362;-6.288;2023-03-23T01:15:19;19.38;;;2.67;;
42586;SDS011;28216;53.362;-6.288;2023-03-23T01:17:45;14.73;;;3.30;;
42586;SDS011;28216;53.362;-6.288;2023-03-23T01:20:12;15.27;;;2.83;;
42586;SDS011;28216;53.362;-6.288;2023-03-23T01:22:40;15.38;;;2.83;;
42586;SDS011;28216;53.362;-6.288;2023-03-23T01:25:06;22.13;;;3.05;;
42586;SDS011;28216;53.362;-6.288;2023-03-23T01:27:32;20.98;;;3.10;;
42586;SDS011;28216;53.362;-6.288;2023-03-23T01:29:58;13.50;;;3.03;;
42586;SDS011;28216;53.362;-6.288;2023-03-23T01:32:23;12.43;;;2.75;;
42586;SDS011;28216;53.362;-6.288;2023-03-23T01:34:49;10.15;;;2.38;;
42586;SDS011;28216;53.362;-6.288;2023-03-23T01:37:14;13.38;;;2.58;;
42586;SDS011;28216;53.362;-6.288;2023-03-23T01:39:41;9.68;;;2.20;;
42586;SDS011;28216;53.362;-6.288;2023-03-23T01:42:07;6.70;;;1.77;;
42586;SDS011;28216;53.362;-6.288;2023-03-23T01:46:59;5.22;;;1.60;;
42586;SDS011;28216;53.362;-6.288;2023-03-23T01:49:26;5.95;;;1.58;;
42586;SDS011;28216;53.362;-6.288;2023-03-23T01:52:00;5.03;;;1.50;;
42586;SDS011;28216;53.362;-6.288;2023-03-23T01:54:29;7.18;;;1.20;;
42586;SDS011;28216;53.362;-6.288;2023-03-23T01:56:59;5.05;;;1.20;;
42586;SDS011;28216;53.362;-6.288;2023-03-23T01:59:28;4.72;;;1.63;;
42586;SDS011;28216;53.362;-6.288;2023-03-23T02:01:55;7.07;;;1.65;;
42586;SDS011;28216;53.362;-6.288;2023-03-23T02:04:21;2.88;;;1.17;;
42586;SDS011;28216;53.362;-6.288;2023-03-23T02:06:48;4.50;;;1.25;;
42586;SDS011;28216;53.362;-6.288;2023-03-23T02:09:15;4.88;;;1.20;;
42586;SDS011;28216;53.362;-6.288;2023-03-23T02:11:42;7.75;;;1.60;;
42586;SDS011;28216;53.362;-6.288;2023-03-23T02:14:08;7.75;;;1.55;;
42586;SDS011;28216;53.362;-6.288;2023-03-23T02:16:39;7.47;;;1.85;;
42586;SDS011;28216;53.362;-6.288;2023-03-23T02:22:03;9.60;;;2.10;;
42586;SDS011;28216;53.362;-6.288;2023-03-23T02:35:36;10.00;;;2.65;;
42586;SDS011;28216;53.362;-6.288;2023-03-23T02:38:06;16.77;;;2.42;;
42586;SDS011;28216;53.362;-6.288;2023-03-23T02:41:00;12.65;;;2.60;;
42586;SDS011;28216;53.362;-6.288;2023-03-23T02:43:28;13.98;;;2.70;;
42586;SDS011;28216;53.362;-6.288;2023-03-23T02:45:58;13.10;;;2.65;;
42586;SDS011;28216;53.362;-6.288;2023-03-23T02:48:27;17.98;;;2.60;;
42586;SDS011;28216;53.362;-6.288;2023-03-23T02:50:55;10.30;;;2.67;;
42586;SDS011;28216;53.362;-6.288;2023-03-23T02:53:24;6.95;;;2.17;;
42586;SDS011;28216;53.362;-6.288;2023-03-23T02:55:52;10.10;;;2.15;;
42586;SDS011;28216;53.362;-6.288;2023-03-23T02:58:20;12.07;;;2.33;;
42586;SDS011;28216;53.362;-6.288;2023-03-23T03:00:48;10.55;;;2.17;;
42586;SDS011;28216;53.362;-6.288;2023-03-23T03:03:15;13.55;;;2.38;;
42586;SDS011;28216;53.362;-6.288;2023-03-23T03:05:49;12.43;;;2.28;;
42586;SDS011;28216;53.362;-6.288;2023-03-23T03:08:48;14.02;;;2.40;;
42586;SDS011;28216;53.362;-6.288;2023-03-23T03:11:19;9.65;;;2.83;;
42586;SDS011;28216;53.362;-6.288;2023-03-23T03:14:01;12.75;;;2.50;;
42586;SDS011;28216;53.362;-6.288;2023-03-23T03:17:20;13.45;;;2.67;;
42586;SDS011;28216;53.362;-6.288;2023-03-23T03:19:46;10.45;;;2.22;;
42586;SDS011;28216;53.362;-6.288;2023-03-23T03:22:15;11.60;;;2.10;;
42586;SDS011;28216;53.362;-6.288;2023-03-23T03:24:42;12.15;;;2.60;;
42586;SDS011;28216;53.362;-6.288;2023-03-23T03:27:13;15.13;;;2.72;;
42586;SDS011;28216;53.362;-6.288;2023-03-23T03:29:42;11.15;;;2.55;;
42586;SDS011;28216;53.362;-6.288;2023-03-23T03:32:14;9.80;;;2.50;;
42586;SDS011;28216;53.362;-6.288;2023-03-23T03:34:43;6.28;;;1.52;;
42586;SDS011;28216;53.362;-6.288;2023-03-23T03:37:09;10.40;;;2.15;;
42586;SDS011;28216;53.362;-6.288;2023-03-23T03:39:37;7.82;;;2.08;;
42586;SDS011;28216;53.362;-6.288;2023-03-23T03:42:03;6.45;;;2.00;;
42586;SDS011;28216;53.362;-6.288;2023-03-23T03:44:30;10.27;;;1.70;;
42586;SDS011;28216;53.362;-6.288;2023-03-23T03:46:56;8.55;;;1.90;;
42586;SDS011;28216;53.362;-6.288;2023-03-23T03:49:21;6.57;;;1.60;;
42586;SDS011;28216;53.362;-6.288;2023-03-23T03:51:47;6.03;;;1.65;;
42586;SDS011;28216;53.362;-6.288;2023-03-23T03:54:13;6.78;;;1.45;;
42586;SDS011;28216;53.362;-6.288;2023-03-23T03:56:38;6.43;;;1.83;;
42586;SDS011;28216;53.362;-6.288;2023-03-23T03:59:07;7.63;;;1.60;;
42586;SDS011;28216;53.362;-6.288;2023-03-23T04:01:34;10.20;;;1.80;;
42586;SDS011;28216;53.362;-6.288;2023-03-23T04:04:01;6.97;;;1.65;;
42586;SDS011;28216;53.362;-6.288;2023-03-23T04:06:27;4.97;;;1.52;;
42586;SDS011;28216;53.362;-6.288;2023-03-23T04:08:57;8.63;;;1.65;;
42586;SDS011;28216;53.362;-6.288;2023-03-23T04:11:24;6.20;;;1.30;;
42586;SDS011;28216;53.362;-6.288;2023-03-23T04:13:50;5.30;;;1.30;;
42586;SDS011;28216;53.362;-6.288;2023-03-23T04:16:15;9.40;;;1.75;;
42586;SDS011;28216;53.362;-6.288;2023-03-23T04:18:42;6.15;;;1.52;;
42586;SDS011;28216;53.362;-6.288;2023-03-23T04:21:10;5.40;;;1.40;;
42586;SDS011;28216;53.362;-6.288;2023-03-23T04:23:36;5.93;;;1.30;;
42586;SDS011;28216;53.362;-6.288;2023-03-23T04:26:02;5.28;;;1.33;;
42586;SDS011;28216;53.362;-6.288;2023-03-23T04:28:29;9.05;;;1.63;;
42586;SDS011;28216;53.362;-6.288;2023-03-23T04:30:58;6.72;;;1.60;;
42586;SDS011;28216;53.362;-6.288;2023-03-23T04:33:25;7.45;;;1.77;;
42586;SDS011;28216;53.362;-6.288;2023-03-23T04:35:53;13.20;;;2.05;;
42586;SDS011;28216;53.362;-6.288;2023-03-23T04:38:20;5.60;;;1.50;;
42586;SDS011;28216;53.362;-6.288;2023-03-23T04:40:48;8.18;;;1.60;;
42586;SDS011;28216;53.362;-6.288;2023-03-23T04:43:19;8.20;;;1.63;;
42586;SDS011;28216;53.362;-6.288;2023-03-23T04:45:51;6.35;;;1.70;;
42586;SDS011;28216;53.362;-6.288;2023-03-23T04:48:21;9.90;;;1.83;;
42586;SDS011;28216;53.362;-6.288;2023-03-23T04:50:48;6.60;;;1.73;;
42586;SDS011;28216;53.362;-6.288;2023-03-23T04:53:15;7.95;;;1.65;;
42586;SDS011;28216;53.362;-6.288;2023-03-23T04:55:42;13.13;;;2.30;;
42586;SDS011;28216;53.362;-6.288;2023-03-23T04:58:08;8.45;;;1.63;;
42586;SDS011;28216;53.362;-6.288;2023-03-23T05:00:35;5.90;;;1.70;;
42586;SDS011;28216;53.362;-6.288;2023-03-23T05:03:01;9.55;;;2.00;;
42586;SDS011;28216;53.362;-6.288;2023-03-23T05:05:27;9.80;;;2.00;;
42586;SDS011;28216;53.362;-6.288;2023-03-23T05:07:55;9.13;;;1.65;;
42586;SDS011;28216;53.362;-6.288;2023-03-23T05:10:21;10.30;;;2.00;;
42586;SDS011;28216;53.362;-6.288;2023-03-23T05:12:47;7.10;;;2.10;;
42586;SDS011;28216;53.362;-6.288;2023-03-23T05:15:13;7.40;;;1.70;;
42586;SDS011;28216;53.362;-6.288;2023-03-23T05:17:40;10.18;;;1.83;;
42586;SDS011;28216;53.362;-6.288;2023-03-23T05:20:09;12.13;;;2.13;;
42586;SDS011;28216;53.362;-6.288;2023-03-23T05:22:37;8.18;;;1.60;;
42586;SDS011;28216;53.362;-6.288;2023-03-23T05:25:03;8.93;;;1.70;;
42586;SDS011;28216;53.362;-6.288;2023-03-23T05:27:31;8.05;;;1.70;;
42586;SDS011;28216;53.362;-6.288;2023-03-23T05:29:57;6.63;;;1.50;;
42586;SDS011;28216;53.362;-6.288;2023-03-23T05:32:24;7.68;;;2.08;;
42586;SDS011;28216;53.362;-6.288;2023-03-23T05:35:00;6.78;;;1.50;;
42586;SDS011;28216;53.362;-6.288;2023-03-23T05:37:27;8.20;;;1.80;;
42586;SDS011;28216;53.362;-6.288;2023-03-23T05:39:57;5.13;;;1.50;;
42586;SDS011;28216;53.362;-6.288;2023-03-23T05:42:28;7.43;;;1.67;;
42586;SDS011;28216;53.362;-6.288;2023-03-23T05:44:54;4.50;;;1.27;;
42586;SDS011;28216;53.362;-6.288;2023-03-23T05:47:19;7.60;;;1.45;;
42586;SDS011;28216;53.362;-6.288;2023-03-23T05:49:45;7.13;;;1.45;;
42586;SDS011;28216;53.362;-6.288;2023-03-23T05:52:11;7.95;;;1.83;;
42586;SDS011;28216;53.362;-6.288;2023-03-23T05:54:36;8.70;;;1.83;;
42586;SDS011;28216;53.362;-6.288;2023-03-23T05:57:02;7.85;;;1.60;;
42586;SDS011;28216;53.362;-6.288;2023-03-23T05:59:28;6.15;;;1.55;;
42586;SDS011;28216;53.362;-6.288;2023-03-23T06:01:53;6.03;;;1.52;;
42586;SDS011;28216;53.362;-6.288;2023-03-23T06:04:19;8.38;;;1.48;;
42586;SDS011;28216;53.362;-6.288;2023-03-23T06:06:45;8.77;;;1.67;;
42586;SDS011;28216;53.362;-6.288;2023-03-23T06:09:11;7.63;;;1.77;;
42586;SDS011;28216;53.362;-6.288;2023-03-23T06:11:42;8.63;;;1.60;;
42586;SDS011;28216;53.362;-6.288;2023-03-23T06:14:07;7.50;;;1.42;;
42586;SDS011;28216;53.362;-6.288;2023-03-23T06:16:34;7.32;;;1.70;;
42586;SDS011;28216;53.362;-6.288;2023-03-23T06:18:59;7.55;;;1.60;;
42586;SDS011;28216;53.362;-6.288;2023-03-23T06:21:25;5.55;;;1.60;;
42586;SDS011;28216;53.362;-6.288;2023-03-23T06:23:54;7.65;;;1.65;;
42586;SDS011;28216;53.362;-6.288;2023-03-23T06:26:20;8.77;;;2.17;;
42586;SDS011;28216;53.362;-6.288;2023-03-23T06:28:52;8.13;;;1.85;;
42586;SDS011;28216;53.362;-6.288;2023-03-23T06:31:17;8.07;;;1.85;;
42586;SDS011;28216;53.362;-6.288;2023-03-23T06:33:45;9.25;;;1.67;;
42586;SDS011;28216;53.362;-6.288;2023-03-23T06:36:12;8.57;;;1.52;;
42586;SDS011;28216;53.362;-6.288;2023-03-23T06:38:38;7.43;;;1.60;;
42586;SDS011;28216;53.362;-6.288;2023-03-23T06:41:03;7.80;;;1.55;;
42586;SDS011;28216;53.362;-6.288;2023-03-23T06:43:29;6.88;;;1.83;;
42586;SDS011;28216;53.362;-6.288;2023-03-23T06:45:58;9.45;;;2.40;;
42586;SDS011;28216;53.362;-6.288;2023-03-23T06:48:24;10.48;;;1.88;;
42586;SDS011;28216;53.362;-6.288;2023-03-23T06:50:50;12.23;;;2.38;;
42586;SDS011;28216;53.362;-6.288;2023-03-23T06:53:15;12.73;;;2.83;;
42586;SDS011;28216;53.362;-6.288;2023-03-23T06:55:42;11.25;;;2.30;;
42586;SDS011;28216;53.362;-6.288;2023-03-23T06:58:08;8.77;;;2.38;;
42586;SDS011;28216;53.362;-6.288;2023-03-23T07:00:35;9.98;;;2.20;;
42586;SDS011;28216;53.362;-6.288;2023-03-23T07:03:01;6.85;;;1.77;;
42586;SDS011;28216;53.362;-6.288;2023-03-23T07:05:26;9.27;;;2.45;;
42586;SDS011;28216;53.362;-6.288;2023-03-23T07:07:52;9.43;;;2.70;;
42586;SDS011;28216;53.362;-6.288;2023-03-23T07:10:18;11.73;;;2.20;;
42586;SDS011;28216;53.362;-6.288;2023-03-23T07:12:44;10.23;;;1.98;;
42586;SDS011;28216;53.362;-6.288;2023-03-23T07:15:10;11.60;;;2.35;;
42586;SDS011;28216;53.362;-6.288;2023-03-23T07:17:38;13.82;;;3.05;;
42586;SDS011;28216;53.362;-6.288;2023-03-23T07:20:19;12.77;;;2.90;;
42586;SDS011;28216;53.362;-6.288;2023-03-23T07:22:45;16.08;;;2.53;;
42586;SDS011;28216;53.362;-6.288;2023-03-23T07:25:10;13.50;;;2.85;;
42586;SDS011;28216;53.362;-6.288;2023-03-23T07:27:36;13.13;;;2.60;;
42586;SDS011;28216;53.362;-6.288;2023-03-23T07:30:02;17.42;;;2.65;;
42586;SDS011;28216;53.362;-6.288;2023-03-23T07:32:28;14.50;;;2.80;;
42586;SDS011;28216;53.362;-6.288;2023-03-23T07:34:57;11.65;;;2.35;;
42586;SDS011;28216;53.362;-6.288;2023-03-23T07:37:23;11.88;;;2.38;;
42586;SDS011;28216;53.362;-6.288;2023-03-23T07:39:51;13.63;;;2.63;;
42586;SDS011;28216;53.362;-6.288;2023-03-23T07:42:17;12.93;;;2.90;;
42586;SDS011;28216;53.362;-6.288;2023-03-23T07:44:43;12.63;;;2.78;;
42586;SDS011;28216;53.362;-6.288;2023-03-23T07:47:08;12.27;;;3.35;;
42586;SDS011;28216;53.362;-6.288;2023-03-23T07:49:39;14.90;;;4.10;;
42586;SDS011;28216;53.362;-6.288;2023-03-23T07:52:05;15.50;;;3.95;;
42586;SDS011;28216;53.362;-6.288;2023-03-23T07:54:31;19.90;;;7.78;;
42586;SDS011;28216;53.362;-6.288;2023-03-23T07:56:56;21.27;;;5.93;;
42586;SDS011;28216;53.362;-6.288;2023-03-23T07:59:24;21.15;;;9.02;;
42586;SDS011;28216;53.362;-6.288;2023-03-23T08:01:53;22.30;;;9.68;;
42586;SDS011;28216;53.362;-6.288;2023-03-23T08:04:18;17.85;;;6.47;;
42586;SDS011;28216;53.362;-6.288;2023-03-23T08:06:43;16.40;;;6.68;;
42586;SDS011;28216;53.362;-6.288;2023-03-23T08:09:09;26.63;;;11.75;;
42586;SDS011;28216;53.362;-6.288;2023-03-23T08:11:35;20.65;;;6.30;;
42586;SDS011;28216;53.362;-6.288;2023-03-23T08:14:04;20.45;;;7.68;;
42586;SDS011;28216;53.362;-6.288;2023-03-23T08:16:30;31.13;;;14.40;;
42586;SDS011;28216;53.362;-6.288;2023-03-23T08:18:56;29.50;;;12.43;;
42586;SDS011;28216;53.362;-6.288;2023-03-23T08:21:22;18.90;;;7.90;;
42586;SDS011;28216;53.362;-6.288;2023-03-23T08:23:48;17.45;;;5.60;;
42586;SDS011;28216;53.362;-6.288;2023-03-23T08:29:49;14.77;;;6.35;;
42586;SDS011;28216;53.362;-6.288;2023-03-23T08:35:37;9.45;;;2.60;;
42586;SDS011;28216;53.362;-6.288;2023-03-23T08:38:02;5.90;;;2.40;;
42586;SDS011;28216;53.362;-6.288;2023-03-23T08:43:13;10.85;;;3.00;;
42586;SDS011;28216;53.362;-6.288;2023-03-23T08:45:40;11.43;;;2.22;;
42586;SDS011;28216;53.362;-6.288;2023-03-23T08:48:06;9.15;;;2.00;;
42586;SDS011;28216;53.362;-6.288;2023-03-23T08:50:35;13.07;;;2.33;;
42586;SDS011;28216;53.362;-6.288;2023-03-23T08:53:00;10.55;;;2.15;;
42586;SDS011;28216;53.362;-6.288;2023-03-23T08:55:26;12.32;;;2.40;;
42586;SDS011;28216;53.362;-6.288;2023-03-23T08:57:53;9.65;;;2.28;;
42586;SDS011;28216;53.362;-6.288;2023-03-23T09:00:20;11.10;;;2.40;;
42586;SDS011;28216;53.362;-6.288;2023-03-23T09:02:49;9.80;;;3.15;;
42586;SDS011;28216;53.362;-6.288;2023-03-23T09:05:17;10.75;;;2.03;;
42586;SDS011;28216;53.362;-6.288;2023-03-23T09:07:46;7.63;;;2.20;;
42586;SDS011;28216;53.362;-6.288;2023-03-23T09:16:12;12.70;;;2.28;;
42586;SDS011;28216;53.362;-6.288;2023-03-23T09:18:38;13.98;;;2.25;;
42586;SDS011;28216;53.362;-6.288;2023-03-23T09:21:03;11.23;;;2.33;;
42586;SDS011;28216;53.362;-6.288;2023-03-23T09:26:32;13.30;;;2.60;;
42586;SDS011;28216;53.362;-6.288;2023-03-23T09:28:58;9.98;;;2.40;;
42586;SDS011;28216;53.362;-6.288;2023-03-23T09:31:23;14.80;;;2.83;;
42586;SDS011;28216;53.362;-6.288;2023-03-23T09:33:51;14.02;;;2.38;;
42586;SDS011;28216;53.362;-6.288;2023-03-23T09:36:18;12.75;;;2.75;;
42586;SDS011;28216;53.362;-6.288;2023-03-23T09:38:46;11.48;;;2.35;;
42586;SDS011;28216;53.362;-6.288;2023-03-23T09:49:30;9.52;;;2.45;;
42586;SDS011;28216;53.362;-6.288;2023-03-23T09:52:01;9.35;;;2.30;;
42586;SDS011;28216;53.362;-6.288;2023-03-23T09:54:42;10.15;;;2.20;;
42586;SDS011;28216;53.362;-6.288;2023-03-23T10:00:01;10.80;;;2.00;;
42586;SDS011;28216;53.362;-6.288;2023-03-23T10:05:47;8.98;;;2.25;;
42586;SDS011;28216;53.362;-6.288;2023-03-23T10:08:15;8.27;;;2.08;;
42586;SDS011;28216;53.362;-6.288;2023-03-23T10:10:53;10.93;;;2.35;;
42586;SDS011;28216;53.362;-6.288;2023-03-23T10:16:10;11.07;;;2.70;;
42586;SDS011;28216;53.362;-6.288;2023-03-23T10:21:26;9.15;;;2.33;;
42586;SDS011;28216;53.362;-6.288;2023-03-23T10:24:02;10.70;;;2.13;;
42586;SDS011;28216;53.362;-6.288;2023-03-23T11:15:16;10.23;;;2.00;;
42586;SDS011;28216;53.362;-6.288;2023-03-23T11:22:14;5.53;;;1.70;;
42586;SDS011;28216;53.362;-6.288;2023-03-23T11:35:00;7.30;;;1.80;;
42586;SDS011;28216;53.362;-6.288;2023-03-23T11:40:51;11.23;;;4.50;;
42586;SDS011;28216;53.362;-6.288;2023-03-23T11:48:54;16.40;;;6.90;;
42586;SDS011;28216;53.362;-6.288;2023-03-23T11:54:17;19.73;;;8.30;;
42586;SDS011;28216;53.362;-6.288;2023-03-23T11:56:43;12.80;;;5.70;;
42586;SDS011;28216;53.362;-6.288;2023-03-23T11:59:14;7.95;;;3.55;;
42586;SDS011;28216;53.362;-6.288;2023-03-23T12:01:53;10.60;;;3.20;;
42586;SDS011;28216;53.362;-6.288;2023-03-23T12:10:20;8.40;;;1.80;;
42586;SDS011;28216;53.362;-6.288;2023-03-23T12:13:01;7.03;;;1.77;;
42586;SDS011;28216;53.362;-6.288;2023-03-23T12:18:37;12.77;;;2.25;;
42586;SDS011;28216;53.362;-6.288;2023-03-23T12:22:07;8.15;;;1.90;;
42586;SDS011;28216;53.362;-6.288;2023-03-23T12:30:58;5.90;;;1.73;;
42586;SDS011;28216;53.362;-6.288;2023-03-23T13:17:24;12.75;;;2.30;;
42586;SDS011;28216;53.362;-6.288;2023-03-23T13:27:16;12.27;;;2.72;;
42586;SDS011;28216;53.362;-6.288;2023-03-23T13:36:28;9.20;;;2.25;;
42586;SDS011;28216;53.362;-6.288;2023-03-23T13:44:44;8.75;;;2.00;;
42586;SDS011;28216;53.362;-6.288;2023-03-23T13:47:28;7.97;;;2.45;;
42586;SDS011;28216;53.362;-6.288;2023-03-23T14:13:32;6.53;;;2.03;;
42586;SDS011;28216;53.362;-6.288;2023-03-23T14:18:39;9.40;;;2.30;;
42586;SDS011;28216;53.362;-6.288;2023-03-23T14:21:12;11.18;;;2.20;;
42586;SDS011;28216;53.362;-6.288;2023-03-23T14:23:40;9.05;;;2.05;;
42586;SDS011;28216;53.362;-6.288;2023-03-23T14:26:10;9.55;;;2.03;;
42586;SDS011;28216;53.362;-6.288;2023-03-23T14:28:41;6.40;;;1.85;;
42586;SDS011;28216;53.362;-6.288;2023-03-23T14:31:19;8.48;;;2.03;;
42586;SDS011;28216;53.362;-6.288;2023-03-23T14:33:47;8.88;;;2.03;;
42586;SDS011;28216;53.362;-6.288;2023-03-23T14:36:18;7.30;;;2.03;;
42586;SDS011;28216;53.362;-6.288;2023-03-23T14:38:46;6.88;;;1.90;;
42586;SDS011;28216;53.362;-6.288;2023-03-23T14:41:11;5.57;;;1.83;;
42586;SDS011;28216;53.362;-6.288;2023-03-23T14:43:38;10.30;;;2.25;;
42586;SDS011;28216;53.362;-6.288;2023-03-23T14:46:07;11.40;;;2.50;;
42586;SDS011;28216;53.362;-6.288;2023-03-23T14:48:36;11.98;;;2.70;;
42586;SDS011;28216;53.362;-6.288;2023-03-23T14:51:04;7.70;;;2.20;;
42586;SDS011;28216;53.362;-6.288;2023-03-23T14:53:33;9.18;;;2.15;;
42586;SDS011;28216;53.362;-6.288;2023-03-23T14:56:04;13.40;;;3.30;;
42586;SDS011;28216;53.362;-6.288;2023-03-23T14:58:38;11.48;;;2.85;;
42586;SDS011;28216;53.362;-6.288;2023-03-23T15:01:09;11.05;;;2.30;;
42586;SDS011;28216;53.362;-6.288;2023-03-23T15:03:41;12.32;;;2.40;;
42586;SDS011;28216;53.362;-6.288;2023-03-23T15:06:12;16.20;;;2.75;;
42586;SDS011;28216;53.362;-6.288;2023-03-23T15:08:41;11.77;;;2.95;;
42586;SDS011;28216;53.362;-6.288;2023-03-23T15:11:12;10.00;;;2.83;;
42586;SDS011;28216;53.362;-6.288;2023-03-23T15:13:42;14.20;;;3.42;;
42586;SDS011;28216;53.362;-6.288;2023-03-23T15:16:13;13.93;;;2.55;;
42586;SDS011;28216;53.362;-6.288;2023-03-23T15:21:49;11.40;;;2.83;;
42586;SDS011;28216;53.362;-6.288;2023-03-23T15:24:24;12.57;;;2.83;;
42586;SDS011;28216;53.362;-6.288;2023-03-23T15:29:31;13.35;;;3.00;;
42586;SDS011;28216;53.362;-6.288;2023-03-23T15:31:57;8.95;;;2.63;;
42586;SDS011;28216;53.362;-6.288;2023-03-23T15:34:29;13.45;;;2.30;;
42586;SDS011;28216;53.362;-6.288;2023-03-23T15:37:04;11.25;;;2.72;;
42586;SDS011;28216;53.362;-6.288;2023-03-23T15:39:49;16.10;;;2.58;;
42586;SDS011;28216;53.362;-6.288;2023-03-23T15:42:29;10.65;;;2.60;;
42586;SDS011;28216;53.362;-6.288;2023-03-23T15:47:45;8.07;;;1.90;;
42586;SDS011;28216;53.362;-6.288;2023-03-23T15:50:17;5.47;;;2.20;;
42586;SDS011;28216;53.362;-6.288;2023-03-23T15:52:45;10.43;;;2.95;;
42586;SDS011;28216;53.362;-6.288;2023-03-23T15:55:22;6.85;;;2.08;;
42586;SDS011;28216;53.362;-6.288;2023-03-23T15:57:48;7.75;;;2.00;;
42586;SDS011;28216;53.362;-6.288;2023-03-23T16:00:15;6.10;;;2.05;;
42586;SDS011;28216;53.362;-6.288;2023-03-23T16:02:42;9.73;;;3.72;;
42586;SDS011;28216;53.362;-6.288;2023-03-23T16:05:11;10.20;;;2.83;;
42586;SDS011;28216;53.362;-6.288;2023-03-23T16:07:37;9.93;;;2.30;;
42586;SDS011;28216;53.362;-6.288;2023-03-23T16:10:04;12.68;;;5.60;;
42586;SDS011;28216;53.362;-6.288;2023-03-23T16:12:30;8.38;;;2.80;;
42586;SDS011;28216;53.362;-6.288;2023-03-23T16:14:55;11.25;;;4.15;;
42586;SDS011;28216;53.362;-6.288;2023-03-23T16:17:21;16.33;;;6.13;;
42586;SDS011;28216;53.362;-6.288;2023-03-23T16:19:46;12.57;;;5.68;;
42586;SDS011;28216;53.362;-6.288;2023-03-23T16:22:12;9.70;;;4.35;;
42586;SDS011;28216;53.362;-6.288;2023-03-23T16:24:37;8.07;;;3.00;;
42586;SDS011;28216;53.362;-6.288;2023-03-23T16:27:03;10.40;;;3.63;;
42586;SDS011;28216;53.362;-6.288;2023-03-23T16:29:30;12.02;;;3.10;;
42586;SDS011;28216;53.362;-6.288;2023-03-23T16:31:55;12.05;;;3.63;;
42586;SDS011;28216;53.362;-6.288;2023-03-23T16:34:21;10.57;;;3.50;;
42586;SDS011;28216;53.362;-6.288;2023-03-23T16:36:47;13.35;;;4.07;;
42586;SDS011;28216;53.362;-6.288;2023-03-23T16:39:15;16.05;;;3.30;;
42586;SDS011;28216;53.362;-6.288;2023-03-23T16:41:43;12.88;;;3.30;;
42586;SDS011;28216;53.362;-6.288;2023-03-23T16:44:09;14.15;;;3.40;;
42586;SDS011;28216;53.362;-6.288;2023-03-23T16:46:34;13.68;;;3.42;;
42586;SDS011;28216;53.362;-6.288;2023-03-23T16:49:00;12.10;;;3.47;;
42586;SDS011;28216;53.362;-6.288;2023-03-23T16:51:26;11.95;;;3.80;;
42586;SDS011;28216;53.362;-6.288;2023-03-23T16:53:51;15.15;;;3.40;;
42586;SDS011;28216;53.362;-6.288;2023-03-23T16:56:16;12.85;;;3.95;;
42586;SDS011;28216;53.362;-6.288;2023-03-23T16:58:42;13.57;;;3.88;;
42586;SDS011;28216;53.362;-6.288;2023-03-23T17:01:08;11.00;;;3.30;;
42586;SDS011;28216;53.362;-6.288;2023-03-23T17:03:33;11.65;;;3.25;;
42586;SDS011;28216;53.362;-6.288;2023-03-23T17:05:59;15.90;;;3.15;;
42586;SDS011;28216;53.362;-6.288;2023-03-23T17:08:28;13.52;;;3.42;;
42586;SDS011;28216;53.362;-6.288;2023-03-23T17:10:54;14.13;;;3.97;;
42586;SDS011;28216;53.362;-6.288;2023-03-23T17:13:20;15.43;;;3.85;;
42586;SDS011;28216;53.362;-6.288;2023-03-23T17:15:45;11.73;;;3.10;;
42586;SDS011;28216;53.362;-6.288;2023-03-23T17:18:11;10.85;;;2.88;;
42586;SDS011;28216;53.362;-6.288;2023-03-23T17:20:37;10.45;;;2.90;;
42586;SDS011;28216;53.362;-6.288;2023-03-23T17:23:03;16.17;;;4.03;;
42586;SDS011;28216;53.362;-6.288;2023-03-23T17:25:29;17.60;;;6.72;;
42586;SDS011;28216;53.362;-6.288;2023-03-23T17:27:55;9.63;;;3.20;;
42586;SDS011;28216;53.362;-6.288;2023-03-23T17:30:20;7.38;;;2.33;;
42586;SDS011;28216;53.362;-6.288;2023-03-23T17:32:46;8.10;;;2.50;;
42586;SDS011;28216;53.362;-6.288;2023-03-23T17:35:13;9.07;;;2.47;;
42586;SDS011;28216;53.362;-6.288;2023-03-23T17:37:39;7.28;;;2.60;;
42586;SDS011;28216;53.362;-6.288;2023-03-23T17:40:05;10.50;;;3.08;;
42586;SDS011;28216;53.362;-6.288;2023-03-23T17:42:34;6.30;;;2.50;;
42586;SDS011;28216;53.362;-6.288;2023-03-23T17:45:00;9.80;;;2.72;;
42586;SDS011;28216;53.362;-6.288;2023-03-23T17:47:25;14.35;;;2.85;;
42586;SDS011;28216;53.362;-6.288;2023-03-23T17:49:51;7.07;;;2.45;;
42586;SDS011;28216;53.362;-6.288;2023-03-23T17:52:16;8.80;;;4.00;;
42586;SDS011;28216;53.362;-6.288;2023-03-23T17:54:42;6.45;;;2.40;;
42586;SDS011;28216;53.362;-6.288;2023-03-23T17:57:08;5.78;;;2.03;;
42586;SDS011;28216;53.362;-6.288;2023-03-23T17:59:34;10.15;;;3.38;;
42586;SDS011;28216;53.362;-6.288;2023-03-23T18:02:00;8.55;;;2.20;;
42586;SDS011;28216;53.362;-6.288;2023-03-23T18:04:25;9.23;;;2.58;;
42586;SDS011;28216;53.362;-6.288;2023-03-23T18:06:53;9.00;;;2.47;;
42586;SDS011;28216;53.362;-6.288;2023-03-23T18:09:19;9.65;;;2.60;;
42586;SDS011;28216;53.362;-6.288;2023-03-23T18:11:45;10.75;;;2.85;;
42586;SDS011;28216;53.362;-6.288;2023-03-23T18:14:10;7.50;;;2.83;;
42586;SDS011;28216;53.362;-6.288;2023-03-23T18:16:36;11.77;;;2.78;;
42586;SDS011;28216;53.362;-6.288;2023-03-23T18:19:01;12.32;;;2.90;;
42586;SDS011;28216;53.362;-6.288;2023-03-23T18:21:27;13.05;;;3.15;;
42586;SDS011;28216;53.362;-6.288;2023-03-23T18:23:52;9.73;;;2.92;;
42586;SDS011;28216;53.362;-6.288;2023-03-23T18:29:04;14.07;;;3.55;;
42586;SDS011;28216;53.362;-6.288;2023-03-23T18:31:30;14.20;;;4.30;;
42586;SDS011;28216;53.362;-6.288;2023-03-23T18:33:56;10.82;;;3.30;;
42586;SDS011;28216;53.362;-6.288;2023-03-23T18:36:26;22.40;;;7.93;;
42586;SDS011;28216;53.362;-6.288;2023-03-23T18:38:53;12.00;;;3.92;;
42586;SDS011;28216;53.362;-6.288;2023-03-23T18:41:22;12.07;;;3.30;;